Time;durP1;ratioP1;P1;durP2;ratioP2;P2;SDS_P1;SDS_P2;PMS_P1;PMS_P2;Temp;Humidity;BMP_temperature;BMP_pressure;BME280_temperature;BME280_humidity;BME280_pressure;Samples;Min_cycle;Max_cycle;Signal;HPM_P1;HPM_P2
2022/10/15 00:00:31;;;;;;;2.67;2.00;;;;;;;20.67;50.41;100235.00;4974026;28;20034;-86
2022/10/15 00:02:57;;;;;;;2.40;2.03;;;;;;;20.59;50.14;100227.28;4973523;28;20046;-86
2022/10/15 00:05:22;;;;;;;2.72;2.33;;;;;;;20.66;50.31;100233.34;4957754;28;20041;-86
2022/10/15 00:07:48;;;;;;;2.60;2.08;;;;;;;20.64;50.44;100230.06;4973967;28;20121;-86
2022/10/15 00:10:14;;;;;;;3.42;2.42;;;;;;;20.66;50.66;100227.91;4973532;28;20388;-87
2022/10/15 00:12:40;;;;;;;3.95;2.35;;;;;;;20.63;50.35;100233.88;4973697;28;20392;-86
2022/10/15 00:15:06;;;;;;;3.25;2.50;;;;;;;20.68;50.07;100231.22;4956012;28;20023;-87
2022/10/15 00:17:32;;;;;;;2.72;2.42;;;;;;;20.59;50.23;100213.72;4973606;28;20030;-86
2022/10/15 00:19:58;;;;;;;3.60;2.13;;;;;;;20.68;50.53;100231.22;4956483;28;20394;-86
2022/10/15 00:22:24;;;;;;;4.40;2.47;;;;;;;20.70;50.23;100229.06;4956673;28;20484;-86
2022/10/15 00:24:52;;;;;;;3.25;2.47;;;;;;;20.66;50.16;100222.47;4973402;28;20027;-86
2022/10/15 00:27:18;;;;;;;2.72;2.22;;;;;;;20.67;50.45;100218.72;4924217;28;20058;-86
2022/10/15 00:29:43;;;;;;;3.38;2.50;;;;;;;20.71;50.35;100229.88;4954762;28;20037;-86
2022/10/15 00:32:09;;;;;;;2.85;2.60;;;;;;;20.54;50.35;100200.94;4973709;28;20121;-86
2022/10/15 00:34:35;;;;;;;3.42;2.38;;;;;;;20.39;50.60;100181.78;4973195;28;20027;-86
2022/10/15 00:37:00;;;;;;;3.20;2.33;;;;;;;20.52;50.57;100199.53;4973568;28;20558;-86
2022/10/15 00:39:26;;;;;;;3.22;2.20;;;;;;;20.71;50.26;100227.97;4956857;28;20046;-86
2022/10/15 00:41:52;;;;;;;4.10;2.50;;;;;;;20.71;50.44;100222.53;4972975;28;20037;-86
2022/10/15 00:44:20;;;;;;;3.10;2.50;;;;;;;20.72;50.41;100229.59;4973213;28;20035;-86
2022/10/15 00:47:09;;;;;;;4.30;2.60;;;;;;;20.68;50.33;100214.94;4972356;28;20124;-86
2022/10/15 00:49:39;;;;;;;4.00;2.58;;;;;;;20.73;50.49;100216.84;4943516;28;20395;-86
2022/10/15 00:52:42;;;;;;;3.47;2.60;;;;;;;20.73;50.47;100223.13;4957735;28;20031;-87
2022/10/15 00:55:20;;;;;;;5.05;3.00;;;;;;;20.73;50.40;100212.25;4972727;28;20222;-86
2022/10/15 00:57:47;;;;;;;3.30;2.33;;;;;;;20.69;50.33;100216.53;4941511;28;20551;-86
2022/10/15 01:00:14;;;;;;;2.63;2.38;;;;;;;20.58;50.51;100193.09;4940944;28;20113;-86
2022/10/15 01:02:40;;;;;;;3.20;2.40;;;;;;;20.72;50.54;100216.03;4953522;28;20023;-87
2022/10/15 01:05:06;;;;;;;2.80;2.30;;;;;;;20.63;50.38;100201.31;4972198;28;20030;-86
2022/10/15 01:07:32;;;;;;;3.63;2.75;;;;;;;20.74;50.18;100218.50;4955473;28;20023;-86
2022/10/15 01:09:57;;;;;;;3.28;2.50;;;;;;;20.59;50.09;100194.72;4972397;28;20030;-86
2022/10/15 01:12:32;;;;;;;3.75;2.65;;;;;;;20.73;50.83;100206.81;4973056;28;20026;-86
2022/10/15 01:15:03;;;;;;;3.50;2.40;;;;;;;20.73;50.35;100214.97;4955717;28;20031;-86
2022/10/15 01:17:43;;;;;;;3.65;2.58;;;;;;;20.74;50.34;100210.34;4972025;28;20023;-86
2022/10/15 01:20:30;;;;;;;4.80;2.63;;;;;;;20.74;50.51;100207.63;4957078;28;20042;-86
2022/10/15 01:23:20;;;;;;;3.35;2.40;;;;;;;20.74;50.33;100207.63;4972182;28;20091;-86
2022/10/15 01:26:13;;;;;;;3.17;2.72;;;;;;;20.70;50.47;100201.09;4972564;28;20801;-86
2022/10/15 01:29:06;;;;;;;2.95;2.42;;;;;;;20.73;50.42;100206.81;4971863;28;20023;-86
2022/10/15 01:31:45;;;;;;;4.68;2.45;;;;;;;20.69;50.38;100194.81;4971366;28;20061;-86
2022/10/15 01:34:17;;;;;;;4.68;2.70;;;;;;;20.70;50.60;100198.38;4971878;28;20073;-86
2022/10/15 01:37:04;;;;;;;2.90;2.45;;;;;;;20.74;50.52;100196.75;4954594;28;20125;-86
2022/10/15 01:39:38;;;;;;;3.70;2.53;;;;;;;20.73;50.75;100195.13;4972069;28;20023;-86
2022/10/15 01:42:12;;;;;;;3.77;2.80;;;;;;;20.57;50.46;100175.97;4972196;28;20027;-86
2022/10/15 01:44:41;;;;;;;3.00;2.70;;;;;;;20.69;50.90;100189.38;4949911;29;20286;-86
2022/10/15 01:47:18;;;;;;;3.80;2.70;;;;;;;20.63;50.52;100195.88;4951215;28;20118;-86
2022/10/15 01:49:44;;;;;;;3.70;2.65;;;;;;;20.72;50.46;100198.94;4953139;28;20159;-86
2022/10/15 01:52:17;;;;;;;3.15;2.42;;;;;;;20.75;50.61;100201.94;4952360;28;20062;-86
2022/10/15 01:54:44;;;;;;;4.05;2.70;;;;;;;20.65;50.53;100182.84;4953181;28;20027;-86
2022/10/15 01:57:10;;;;;;;3.97;2.90;;;;;;;20.63;50.77;100185.00;4950846;29;20078;-86
2022/10/15 01:59:36;;;;;;;3.63;2.78;;;;;;;20.75;50.56;100192.97;4951081;28;20031;-86
2022/10/15 02:02:01;;;;;;;2.83;2.53;;;;;;;20.51;50.50;100170.78;4935234;29;20110;-86
2022/10/15 02:04:29;;;;;;;4.22;2.63;;;;;;;20.62;50.45;100183.38;4952159;29;20404;-86
2022/10/15 02:07:03;;;;;;;3.05;2.60;;;;;;;20.76;50.39;100203.56;4951011;29;20074;-86
2022/10/15 02:09:45;;;;;;;3.58;2.70;;;;;;;20.76;50.55;100200.03;4952407;29;20051;-86
2022/10/15 02:12:44;;;;;;;3.33;2.53;;;;;;;20.75;50.40;100199.22;4935778;29;20031;-86
2022/10/15 02:15:30;;;;;;;3.47;2.78;;;;;;;20.76;50.69;100203.56;4951965;29;20023;-86
2022/10/15 02:18:11;;;;;;;4.22;2.92;;;;;;;20.61;50.33;100181.69;4964991;28;20035;-87
2022/10/15 02:21:07;;;;;;;2.58;2.38;;;;;;;20.75;50.49;100196.50;4952423;28;20129;-86
2022/10/15 02:24:04;;;;;;;3.53;2.78;;;;;;;20.77;50.42;100190.81;4949512;29;20033;-86
2022/10/15 02:26:29;;;;;;;3.78;2.70;;;;;;;20.75;50.49;100199.22;4960939;28;20035;-86
2022/10/15 02:28:57;;;;;;;3.20;2.40;;;;;;;20.74;50.49;100192.16;4934592;29;20388;-86
2022/10/15 02:31:22;;;;;;;3.65;2.90;;;;;;;20.66;50.78;100181.75;4966916;28;20161;-86
2022/10/15 02:33:49;;;;;;;3.70;2.95;;;;;;;20.77;50.81;100188.91;4949513;29;20556;-86
2022/10/15 02:36:14;;;;;;;4.30;3.00;;;;;;;20.60;50.68;100163.78;4950746;29;20026;-86
2022/10/15 02:38:41;;;;;;;4.50;2.58;;;;;;;20.69;50.94;100172.28;4951968;29;20380;-86
2022/10/15 02:41:07;;;;;;;3.45;2.50;;;;;;;20.60;50.52;100174.63;4951211;28;20123;-86
2022/10/15 02:43:33;;;;;;;3.22;2.60;;;;;;;20.55;50.66;100147.44;4937020;28;20103;-86
2022/10/15 02:45:59;;;;;;;2.55;2.33;;;;;;;20.60;51.04;100161.88;4952600;28;20031;-86
2022/10/15 02:48:25;;;;;;;3.75;2.53;;;;;;;20.77;50.53;100183.47;4970951;28;20037;-86
2022/10/15 02:50:50;;;;;;;3.55;2.50;;;;;;;20.68;50.77;100171.47;4970605;28;20102;-86
2022/10/15 02:53:16;;;;;;;3.10;2.53;;;;;;;20.69;50.98;100162.25;4970146;28;20027;-86
2022/10/15 02:55:42;;;;;;;3.15;2.85;;;;;;;20.79;50.83;100186.75;4970606;28;20476;-86
2022/10/15 02:58:07;;;;;;;3.35;2.70;;;;;;;20.60;50.63;100161.88;4970281;28;20088;-86
2022/10/15 03:00:33;;;;;;;3.03;2.38;;;;;;;20.65;50.70;100171.19;4970933;28;20026;-86
2022/10/15 03:02:59;;;;;;;3.08;2.67;;;;;;;20.70;50.97;100179.38;4970319;28;20030;-86
2022/10/15 03:05:24;;;;;;;2.78;2.50;;;;;;;20.44;50.67;100125.66;4956516;28;20391;-86
2022/10/15 03:07:50;;;;;;;3.67;2.78;;;;;;;20.74;50.56;100175.84;4970494;28;20066;-86
2022/10/15 03:10:16;;;;;;;3.03;2.67;;;;;;;20.63;50.72;100155.16;4953882;28;20031;-86
2022/10/15 03:12:41;;;;;;;3.45;2.65;;;;;;;20.78;50.84;100177.00;4953871;28;20028;-86
2022/10/15 03:15:07;;;;;;;3.08;2.67;;;;;;;20.76;50.89;100170.16;4970368;28;20507;-86
2022/10/15 03:17:33;;;;;;;3.53;2.63;;;;;;;20.79;50.73;100173.19;4970474;28;20396;-86
2022/10/15 03:19:59;;;;;;;2.88;2.58;;;;;;;20.65;51.04;100161.13;4970729;28;20105;-86
2022/10/15 03:22:24;;;;;;;3.67;2.78;;;;;;;20.66;50.70;100148.38;4970205;28;20027;-86
2022/10/15 03:24:50;;;;;;;2.65;2.30;;;;;;;20.79;50.81;100165.03;4970507;28;20028;-86
2022/10/15 03:27:16;;;;;;;3.10;2.50;;;;;;;20.62;50.88;100139.94;4952802;28;21095;-86
2022/10/15 03:29:41;;;;;;;3.28;2.85;;;;;;;20.65;50.83;100139.41;4953846;28;20106;-86
2022/10/15 03:32:07;;;;;;;2.80;2.35;;;;;;;20.80;50.59;100163.97;4953350;28;20118;-86
2022/10/15 03:34:33;;;;;;;3.97;2.70;;;;;;;20.64;50.92;100148.63;4969962;28;20027;-86
2022/10/15 03:36:58;;;;;;;3.03;2.72;;;;;;;20.80;50.87;100174.81;4953735;28;20030;-86
2022/10/15 03:39:24;;;;;;;2.92;2.30;;;;;;;20.62;50.86;100148.88;4970078;28;20476;-86
2022/10/15 03:41:52;;;;;;;3.38;2.63;;;;;;;20.80;50.73;100177.53;4970353;28;20035;-86
2022/10/15 03:44:18;;;;;;;3.63;3.10;;;;;;;20.70;50.65;100155.75;4970406;28;20407;-86
2022/10/15 03:46:43;;;;;;;3.50;2.78;;;;;;;20.80;51.11;100169.41;4953609;28;20023;-86
2022/10/15 03:49:10;;;;;;;3.13;2.50;;;;;;;20.76;50.79;100162.81;4952913;28;20039;-86
2022/10/15 03:51:36;;;;;;;3.05;2.53;;;;;;;20.70;50.72;100147.59;4970166;28;20278;-86
2022/10/15 03:54:02;;;;;;;3.88;2.92;;;;;;;20.81;50.73;100170.19;4970271;28;20027;-86
2022/10/15 03:56:31;;;;;;;3.30;2.90;;;;;;;20.80;50.74;100168.59;4970344;28;20506;-86
2022/10/15 03:58:57;;;;;;;3.10;2.80;;;;;;;20.77;50.95;100158.22;4969917;28;20487;-86
2022/10/15 04:01:22;;;;;;;3.33;2.85;;;;;;;20.69;50.81;100153.28;4935002;28;20114;-86
2022/10/15 04:03:52;;;;;;;3.60;3.00;;;;;;;20.81;50.66;100170.19;4969963;28;20030;-86
2022/10/15 04:06:17;;;;;;;3.38;2.63;;;;;;;20.81;51.16;100172.91;4953070;28;20490;-86
2022/10/15 04:08:43;;;;;;;3.47;2.80;;;;;;;20.78;50.96;100165.28;4936849;28;20031;-86
2022/10/15 04:11:09;;;;;;;7.15;3.55;;;;;;;20.81;50.95;100168.28;4938987;28;20034;-86
2022/10/15 04:13:34;;;;;;;3.80;2.92;;;;;;;20.62;51.21;100156.22;4970543;28;20030;-86
2022/10/15 04:16:02;;;;;;;3.65;2.88;;;;;;;20.81;51.01;100171.00;4970028;28;20027;-86
2022/10/15 04:18:28;;;;;;;3.25;2.85;;;;;;;20.82;51.48;100164.50;4921301;28;20072;-86
2022/10/15 04:20:54;;;;;;;3.90;3.03;;;;;;;20.82;50.95;100178.09;4969851;28;20031;-86
2022/10/15 04:23:19;;;;;;;4.20;2.83;;;;;;;20.59;51.40;100143.97;4954423;28;20118;-86
2022/10/15 04:25:45;;;;;;;3.92;3.10;;;;;;;20.83;51.42;100168.03;4973645;28;20124;-86
2022/10/15 04:28:11;;;;;;;3.55;2.80;;;;;;;20.81;51.05;100176.44;4956845;28;20037;-86
2022/10/15 04:30:37;;;;;;;4.93;3.30;;;;;;;20.82;51.02;100172.66;4956086;28;20030;-86
2022/10/15 04:33:02;;;;;;;2.97;2.40;;;;;;;20.84;50.71;100171.59;4972982;28;20106;-86
2022/10/15 04:35:28;;;;;;;3.90;3.15;;;;;;;20.84;51.16;100175.13;4973058;28;20034;-86
2022/10/15 04:37:57;;;;;;;4.45;3.13;;;;;;;20.84;51.10;100180.53;4973165;28;20599;-86
2022/10/15 04:40:23;;;;;;;5.32;3.22;;;;;;;20.82;50.75;100175.38;4973065;28;20043;-86
2022/10/15 04:42:48;;;;;;;4.70;3.40;;;;;;;20.78;50.84;100168.84;4973391;28;20031;-86
2022/10/15 04:45:14;;;;;;;3.70;3.08;;;;;;;20.82;50.92;100167.22;4972698;28;20126;-86
2022/10/15 04:47:40;;;;;;;4.63;3.30;;;;;;;20.81;51.01;100160.16;4973003;28;20562;-86
2022/10/15 04:50:06;;;;;;;3.42;3.00;;;;;;;20.78;51.07;100170.72;4956099;28;20054;-86
2022/10/15 04:52:33;;;;;;;3.47;3.13;;;;;;;20.82;50.89;100172.66;4972776;28;20061;-86
2022/10/15 04:54:58;;;;;;;6.28;3.35;;;;;;;20.65;50.87;100144.03;4956966;28;20055;-86
2022/10/15 04:57:25;;;;;;;4.35;3.13;;;;;;;20.69;50.96;100151.38;4972538;28;20042;-86
2022/10/15 04:59:52;;;;;;;4.75;3.80;;;;;;;20.84;50.78;100175.13;4957049;28;20109;-86
2022/10/15 05:02:21;;;;;;;4.93;3.47;;;;;;;20.76;51.00;100157.41;4972881;28;20496;-86
2022/10/15 05:04:46;;;;;;;3.95;3.25;;;;;;;20.69;50.90;100151.38;4956310;28;20126;-86
2022/10/15 05:07:12;;;;;;;4.38;3.10;;;;;;;20.63;50.93;100138.84;4955406;28;20463;-86
2022/10/15 05:09:38;;;;;;;4.28;3.45;;;;;;;20.76;50.79;100154.69;4972281;28;20458;-86
2022/10/15 05:12:03;;;;;;;5.18;3.55;;;;;;;20.74;50.82;100143.25;4973653;28;20369;-86
2022/10/15 05:14:29;;;;;;;5.00;4.03;;;;;;;20.86;50.85;100174.84;4973200;28;20384;-86
2022/10/15 05:16:54;;;;;;;5.45;3.63;;;;;;;20.81;50.85;100171.00;4972176;28;20026;-86
2022/10/15 05:19:20;;;;;;;5.65;4.15;;;;;;;20.69;50.74;100142.41;4972667;28;20137;-86
2022/10/15 05:21:46;;;;;;;5.22;3.92;;;;;;;20.63;50.92;100133.44;4957561;28;20446;-86
2022/10/15 05:24:11;;;;;;;5.53;4.13;;;;;;;20.82;50.86;100164.50;4972759;28;20090;-86
2022/10/15 05:26:37;;;;;;;5.47;3.97;;;;;;;20.80;50.96;100172.09;4972662;28;20420;-86
2022/10/15 05:29:02;;;;;;;6.25;4.03;;;;;;;20.84;50.80;100164.25;4971896;28;20031;-86
2022/10/15 05:31:29;;;;;;;4.60;3.85;;;;;;;20.73;50.80;100149.78;4972937;28;20034;-86
2022/10/15 05:33:55;;;;;;;4.90;3.67;;;;;;;20.78;50.90;100159.84;4971833;28;20038;-86
2022/10/15 05:36:25;;;;;;;5.20;3.63;;;;;;;20.77;50.76;100163.66;4971884;28;20543;-86
2022/10/15 05:38:56;;;;;;;5.70;3.80;;;;;;;20.75;50.75;100150.34;4971720;28;20034;-86
2022/10/15 05:41:22;;;;;;;5.15;3.85;;;;;;;20.81;50.89;100162.06;4971169;28;20102;-86
2022/10/15 05:43:53;;;;;;;4.75;3.80;;;;;;;20.80;50.78;100166.69;4951456;29;20058;-86
2022/10/15 05:46:19;;;;;;;5.15;3.90;;;;;;;20.83;50.80;100159.88;4951259;29;20447;-86
2022/10/15 05:48:52;;;;;;;5.13;4.05;;;;;;;20.85;50.80;100162.34;4952245;28;20038;-86
2022/10/15 05:51:17;;;;;;;4.80;3.60;;;;;;;20.71;50.82;100149.22;4952369;28;20111;-86
2022/10/15 05:53:45;;;;;;;3.72;3.33;;;;;;;20.86;51.13;100169.44;4952642;28;20102;-86
2022/10/15 05:56:11;;;;;;;4.95;3.65;;;;;;;20.80;51.12;100163.97;4952804;28;20027;-86
2022/10/15 05:58:37;;;;;;;6.22;4.10;;;;;;;20.65;51.23;100144.84;4950943;29;20110;-86
2022/10/15 06:01:05;;;;;;;3.97;3.55;;;;;;;20.81;50.88;100168.28;4952663;28;20476;-86
2022/10/15 06:03:30;;;;;;;4.40;3.97;;;;;;;20.75;50.86;100165.81;4952142;28;20038;-86
2022/10/15 06:05:56;;;;;;;5.32;3.88;;;;;;;20.77;50.89;100163.66;4952584;28;20035;-86
2022/10/15 06:08:22;;;;;;;4.75;3.90;;;;;;;20.79;50.82;100165.03;4951425;29;20427;-86
2022/10/15 06:10:47;;;;;;;4.82;3.88;;;;;;;20.78;50.99;100163.41;4952079;29;20027;-86
2022/10/15 06:13:13;;;;;;;4.82;4.10;;;;;;;20.81;51.12;100175.63;4952558;29;20023;-86
2022/10/15 06:15:42;;;;;;;5.75;4.15;;;;;;;20.85;51.05;100175.94;4951883;28;20533;-86
2022/10/15 06:18:09;;;;;;;6.47;4.35;;;;;;;20.79;50.71;100156.88;4950721;29;20038;-86
2022/10/15 06:20:36;;;;;;;5.55;4.28;;;;;;;20.86;50.77;100166.72;4952285;28;20023;-86
2022/10/15 06:23:01;;;;;;;4.65;3.60;;;;;;;20.86;50.86;100172.16;4952216;28;20182;-86
2022/10/15 06:25:27;;;;;;;5.55;4.03;;;;;;;20.61;50.79;100138.25;4952404;28;20110;-87
2022/10/15 06:27:53;;;;;;;6.07;4.28;;;;;;;20.71;50.68;100160.06;4951802;28;20119;-87
2022/10/15 06:30:19;;;;;;;4.78;3.63;;;;;;;20.87;50.72;100173.75;4952142;28;20121;-87
2022/10/15 06:32:51;;;;;;;4.88;3.83;;;;;;;20.86;50.96;100170.22;4952206;28;20106;-86
2022/10/15 06:35:17;;;;;;;4.80;4.00;;;;;;;20.64;51.15;100137.75;4951522;29;20114;-86
2022/10/15 06:37:42;;;;;;;5.57;4.10;;;;;;;20.75;50.93;100155.78;4950718;29;20098;-87
2022/10/15 06:40:09;;;;;;;5.80;3.97;;;;;;;20.86;50.99;100172.16;4950229;29;20479;-86
2022/10/15 06:42:35;;;;;;;5.60;4.00;;;;;;;20.73;50.86;100155.22;4952005;28;20023;-87
2022/10/15 06:45:00;;;;;;;5.57;4.25;;;;;;;20.73;51.22;100162.53;4953132;28;20479;-86
2022/10/15 06:47:26;;;;;;;4.35;3.88;;;;;;;20.87;51.09;100181.91;4970274;28;20031;-86
2022/10/15 06:49:51;;;;;;;5.20;4.13;;;;;;;20.80;51.03;100168.59;4970737;28;20114;-86
2022/10/15 06:52:17;;;;;;;5.35;4.25;;;;;;;20.78;51.16;100174.28;4970521;28;20137;-86
2022/10/15 06:54:43;;;;;;;5.40;4.32;;;;;;;20.87;51.07;100195.50;4954143;28;20039;-86
2022/10/15 06:57:09;;;;;;;5.18;4.40;;;;;;;20.84;51.20;100187.88;4970933;28;20383;-86
2022/10/15 06:59:34;;;;;;;5.05;4.03;;;;;;;20.87;50.98;100193.63;4970214;28;20476;-86
2022/10/15 07:02:00;;;;;;;5.97;4.20;;;;;;;20.87;51.03;100192.78;4971059;28;20078;-86
2022/10/15 07:04:26;;;;;;;4.38;3.70;;;;;;;20.84;51.18;100187.88;4970216;28;20026;-86
2022/10/15 07:06:51;;;;;;;5.55;4.18;;;;;;;20.78;51.26;100181.56;4970817;28;20479;-86
2022/10/15 07:09:18;;;;;;;4.72;3.92;;;;;;;20.67;51.24;100172.53;4970898;28;20027;-86
2022/10/15 07:11:43;;;;;;;5.78;4.30;;;;;;;20.79;50.96;100180.50;4939472;28;20081;-86
2022/10/15 07:14:09;;;;;;;5.10;3.92;;;;;;;20.88;51.10;100191.72;4953423;28;20035;-86
2022/10/15 07:16:36;;;;;;;4.50;3.78;;;;;;;20.69;51.03;100170.38;4970221;28;20029;-86
2022/10/15 07:19:02;;;;;;;7.22;4.57;;;;;;;20.87;51.07;100196.34;4970316;28;20034;-86
2022/10/15 07:21:27;;;;;;;4.63;3.95;;;;;;;20.89;50.95;100201.50;4970331;28;20044;-86
2022/10/15 07:23:53;;;;;;;4.95;4.00;;;;;;;20.84;51.05;100202.28;4970433;28;20498;-86
2022/10/15 07:26:19;;;;;;;5.10;4.22;;;;;;;20.63;50.90;100177.69;4970698;28;20027;-86
2022/10/15 07:28:44;;;;;;;4.82;3.90;;;;;;;20.87;51.04;100218.06;4953624;28;20162;-86
2022/10/15 07:31:10;;;;;;;4.55;3.97;;;;;;;20.75;50.90;100192.97;4970500;28;20065;-86
2022/10/15 07:33:36;;;;;;;4.55;3.78;;;;;;;20.90;51.25;100216.72;4970249;28;20029;-86
2022/10/15 07:36:05;;;;;;;4.93;4.00;;;;;;;20.61;51.04;100176.25;4953164;28;20316;-86
2022/10/15 07:38:32;;;;;;;5.15;4.00;;;;;;;20.77;51.13;100193.53;4970487;28;20387;-86
2022/10/15 07:40:59;;;;;;;7.18;4.25;;;;;;;20.56;51.14;100165.38;4969777;28;20026;-86
2022/10/15 07:43:24;;;;;;;5.07;3.60;;;;;;;20.90;51.18;100216.72;4968686;28;20066;-86
2022/10/15 07:45:50;;;;;;;5.13;3.70;;;;;;;20.90;51.13;100216.72;4938420;28;20033;-86
2022/10/15 07:48:16;;;;;;;5.78;4.07;;;;;;;20.82;51.20;100205.25;4970578;28;20022;-86
2022/10/15 07:50:42;;;;;;;4.30;3.90;;;;;;;20.90;51.41;100217.50;4953168;28;20034;-86
2022/10/15 07:53:07;;;;;;;5.78;4.55;;;;;;;20.91;51.14;100210.22;4969907;28;20027;-86
2022/10/15 07:55:33;;;;;;;5.45;4.22;;;;;;;20.90;51.27;100219.41;4970261;28;20034;-86
2022/10/15 07:57:59;;;;;;;4.65;3.92;;;;;;;20.90;51.33;100222.13;4970433;28;20074;-86
2022/10/15 08:00:24;;;;;;;5.30;4.18;;;;;;;20.87;51.14;100214.50;4974267;28;20113;-86
2022/10/15 08:02:50;;;;;;;7.53;4.38;;;;;;;20.88;51.04;100218.88;4973504;28;20041;-86
2022/10/15 08:05:16;;;;;;;5.57;4.28;;;;;;;20.90;51.15;100224.84;4973967;28;20476;-86
2022/10/15 08:07:41;;;;;;;5.70;4.20;;;;;;;20.90;51.04;100222.13;4973882;28;20027;-86
2022/10/15 08:10:08;;;;;;;6.90;4.43;;;;;;;20.81;50.89;100219.91;4958133;28;20058;-86
2022/10/15 08:12:34;;;;;;;5.97;4.55;;;;;;;20.91;51.02;100226.50;4958649;28;20404;-86
2022/10/15 08:15:00;;;;;;;6.20;4.70;;;;;;;20.90;51.10;100227.56;4973218;28;20048;-86
2022/10/15 08:17:26;;;;;;;4.38;3.97;;;;;;;20.91;51.07;100229.22;4973777;28;20477;-86
2022/10/15 08:19:51;;;;;;;4.95;4.07;;;;;;;20.91;51.02;100229.22;4973549;28;20148;-86
2022/10/15 08:22:17;;;;;;;5.00;4.13;;;;;;;20.91;51.03;100238.19;4973317;28;20463;-86
2022/10/15 08:24:43;;;;;;;5.40;4.68;;;;;;;20.90;51.10;100233.00;4957319;28;20117;-86
2022/10/15 08:27:08;;;;;;;5.78;4.82;;;;;;;20.90;51.06;100238.44;4973224;28;20037;-86
2022/10/15 08:29:35;;;;;;;6.28;4.20;;;;;;;20.90;51.03;100233.81;4973407;28;20518;-86
2022/10/15 08:32:00;;;;;;;6.18;4.35;;;;;;;20.91;51.24;100237.38;4973670;28;20488;-87
2022/10/15 08:34:26;;;;;;;6.15;4.65;;;;;;;20.92;51.09;100236.28;4973236;28;20065;-86
2022/10/15 08:36:52;;;;;;;5.68;4.63;;;;;;;20.92;51.38;100241.69;4941719;28;20064;-86
2022/10/15 08:39:17;;;;;;;5.43;4.53;;;;;;;20.92;51.14;100241.69;4973150;28;20074;-87
2022/10/15 08:41:52;;;;;;;7.22;4.38;;;;;;;20.90;51.19;100233.00;4955713;28;20109;-86
2022/10/15 08:44:30;;;;;;;5.25;4.22;;;;;;;20.92;51.15;100234.41;4952545;29;20043;-86
2022/10/15 08:47:01;;;;;;;5.72;4.40;;;;;;;20.93;51.18;100243.34;4954618;28;20035;-87
2022/10/15 08:49:42;;;;;;;6.65;4.53;;;;;;;20.93;51.28;100237.91;4950866;29;20020;-87
2022/10/15 08:52:39;;;;;;;7.13;4.75;;;;;;;20.94;51.23;100247.72;4951951;29;20113;-87
2022/10/15 08:55:05;;;;;;;5.82;4.38;;;;;;;20.92;51.59;100242.53;4940701;29;20499;-86
2022/10/15 08:57:42;;;;;;;5.80;4.15;;;;;;;20.94;51.42;100245.00;4953452;28;20050;-86
2022/10/15 09:00:36;;;;;;;5.38;4.10;;;;;;;20.94;51.46;100245.00;4953694;29;20036;-87
2022/10/15 09:03:20;;;;;;;5.43;4.55;;;;;;;20.92;51.33;100241.69;4952169;28;20101;-87
2022/10/15 09:06:14;;;;;;;6.18;4.47;;;;;;;20.92;51.09;100249.84;4953674;28;20031;-87
2022/10/15 09:09:00;;;;;;;6.55;4.53;;;;;;;20.95;51.44;100252.06;4950633;29;20082;-87
2022/10/15 09:11:50;;;;;;;6.47;4.50;;;;;;;20.93;51.31;100249.59;4951471;29;20400;-87
2022/10/15 09:14:18;;;;;;;6.25;4.55;;;;;;;20.90;51.16;100252.00;4953694;28;20078;-87
2022/10/15 09:16:45;;;;;;;6.00;4.80;;;;;;;20.86;51.22;100238.13;4953023;28;20106;-87
2022/10/15 09:19:16;;;;;;;6.80;5.25;;;;;;;20.92;51.26;100252.56;4952036;29;20477;-87
2022/10/15 09:21:42;;;;;;;6.32;4.53;;;;;;;20.91;51.05;100250.94;4951534;29;20473;-87
2022/10/15 09:24:11;;;;;;;5.32;4.68;;;;;;;20.93;51.07;100259.66;4937343;29;20349;-87
2022/10/15 09:26:55;;;;;;;7.05;5.30;;;;;;;20.92;50.99;100261.56;4936163;29;20031;-86
2022/10/15 09:29:59;;;;;;;;;;;;;;;20.94;51.08;100266.72;4952437;29;20031;-84
2022/10/15 09:32:37;;;;;;;6.82;5.00;;;;;;;20.94;51.13;100262.13;4931527;29;19962;-86
2022/10/15 09:35:11;;;;;;;6.63;5.18;;;;;;;20.95;50.98;100263.72;4913309;29;20565;-86
2022/10/15 09:37:58;;;;;;;6.90;5.00;;;;;;;20.93;51.18;100259.66;4935847;29;20043;-86
2022/10/15 09:40:36;;;;;;;6.00;4.75;;;;;;;20.94;51.32;100258.59;4952016;29;20034;-86
2022/10/15 09:43:04;;;;;;;6.93;4.70;;;;;;;20.91;51.27;100253.66;4952396;28;20043;-86
2022/10/15 09:45:30;;;;;;;6.40;5.00;;;;;;;20.77;51.17;100224.22;4951125;29;20561;-86
2022/10/15 09:47:59;;;;;;;5.65;4.70;;;;;;;20.86;51.28;100242.75;4951554;29;20035;-86
2022/10/15 09:50:43;;;;;;;6.57;4.70;;;;;;;20.91;51.23;100245.50;4950813;29;20061;-86
2022/10/15 09:53:14;;;;;;;;;;;;;;;20.96;51.28;100254.50;4951026;28;20046;-85
2022/10/15 09:55:56;;;;;;;7.50;4.95;;;;;;;20.94;51.31;100255.88;4951906;29;19972;-86
2022/10/15 09:58:48;;;;;;;7.50;5.10;;;;;;;20.96;51.32;100243.66;4949368;29;20453;-86
2022/10/15 10:01:25;;;;;;;6.30;5.00;;;;;;;20.79;51.25;100222.06;4951607;28;20028;-86
2022/10/15 10:03:52;;;;;;;5.72;4.75;;;;;;;20.92;51.25;100242.53;4950663;28;20469;-86
2022/10/15 10:06:18;;;;;;;6.57;5.38;;;;;;;20.94;51.00;100245.81;4952838;28;20098;-86
2022/10/15 10:08:58;;;;;;;8.02;5.60;;;;;;;20.88;51.24;100233.25;4951359;28;20031;-86
2022/10/15 10:11:24;;;;;;;6.47;5.30;;;;;;;20.78;51.00;100242.16;4950834;29;20031;-86
2022/10/15 10:13:53;;;;;;;7.97;5.53;;;;;;;20.96;51.04;100265.38;4950596;29;20024;-86
2022/10/15 10:16:20;;;;;;;8.70;5.80;;;;;;;20.95;50.84;100260.22;4952016;28;20070;-86
2022/10/15 10:19:12;;;;;;;8.40;6.43;;;;;;;20.97;51.00;100263.47;4952396;28;20027;-86
2022/10/15 10:21:40;;;;;;;6.43;5.43;;;;;;;20.89;51.11;100253.13;4945397;28;20050;-86
2022/10/15 10:24:30;;;;;;;6.72;5.40;;;;;;;20.77;51.20;100240.50;4951151;29;20179;-86
2022/10/15 10:27:00;;;;;;;7.22;5.60;;;;;;;20.96;51.20;100262.66;4952136;28;20027;-86
2022/10/15 10:29:25;;;;;;;8.55;5.57;;;;;;;20.97;51.26;100258.03;4967196;28;20083;-86
2022/10/15 10:31:52;;;;;;;9.40;5.82;;;;;;;20.87;51.33;100245.22;4966953;28;20027;-86
2022/10/15 10:34:25;;;;;;;6.47;5.32;;;;;;;20.80;51.46;100223.72;4951878;29;20543;-86
2022/10/15 10:36:51;;;;;;;7.68;5.45;;;;;;;20.97;51.44;100250.72;4950908;29;20102;-86
2022/10/15 10:39:33;;;;;;;6.43;5.28;;;;;;;20.97;51.50;100250.72;4951758;28;20118;-86
2022/10/15 10:42:00;;;;;;;8.23;5.45;;;;;;;20.91;51.45;100240.09;4934340;29;20030;-86
2022/10/15 10:44:36;;;;;;;8.18;5.43;;;;;;;20.99;51.26;100247.75;4961269;28;20046;-86
2022/10/15 10:47:03;;;;;;;8.32;6.40;;;;;;;20.98;51.32;100248.81;4970234;28;20061;-87
2022/10/15 10:49:40;;;;;;;8.15;6.03;;;;;;;20.96;51.26;100248.28;4953728;28;20035;-86
2022/10/15 10:52:20;;;;;;;8.73;6.20;;;;;;;20.99;51.21;100256.72;4970194;28;20059;-87
2022/10/15 10:54:47;;;;;;;8.23;6.30;;;;;;;20.97;51.36;100247.19;4955369;28;20538;-87
2022/10/15 10:57:13;;;;;;;7.88;6.32;;;;;;;20.75;51.22;100207.38;4953241;28;20054;-87
2022/10/15 10:59:50;;;;;;;8.20;5.72;;;;;;;20.79;51.18;100213.91;4970615;28;20031;-87
2022/10/15 11:02:16;;;;;;;7.60;5.88;;;;;;;20.87;51.22;100223.50;4938138;28;20038;-86
2022/10/15 11:04:42;;;;;;;7.68;6.15;;;;;;;20.96;51.18;100229.25;4953805;28;20022;-87
2022/10/15 11:07:20;;;;;;;8.30;5.50;;;;;;;21.00;51.38;100243.94;4953645;28;20111;-87
2022/10/15 11:10:10;;;;;;;8.32;5.65;;;;;;;21.01;51.36;100240.16;4969045;28;20027;-87
2022/10/15 11:13:26;;;;;;;8.07;5.95;;;;;;;21.03;51.23;100248.06;4952603;28;20738;-87
2022/10/15 11:16:00;;;;;;;8.80;6.30;;;;;;;20.85;51.20;100231.06;4891264;29;20041;-86
2022/10/15 11:18:31;;;;;;;7.43;6.60;;;;;;;21.01;51.22;100251.84;4876411;29;20036;-86
2022/10/15 11:21:09;;;;;;;7.80;6.47;;;;;;;21.02;51.16;100247.22;4940425;28;20042;-86
2022/10/15 11:24:02;;;;;;;6.78;5.40;;;;;;;21.03;51.24;100251.59;4970486;28;20484;-86
2022/10/15 11:27:13;;;;;;;8.68;6.45;;;;;;;21.03;51.26;100251.59;4954540;28;20037;-87
2022/10/15 11:29:48;;;;;;;8.20;5.93;;;;;;;20.97;51.56;100249.91;4965702;28;20050;-86
2022/10/15 11:32:35;;;;;;;8.40;6.65;;;;;;;21.02;51.46;100252.66;4970657;28;20031;-86
2022/10/15 11:35:06;;;;;;;7.63;6.07;;;;;;;21.02;51.60;100258.09;4968538;28;20387;-86
2022/10/15 11:37:50;;;;;;;9.38;6.28;;;;;;;20.98;51.34;100252.34;4970586;28;20082;-86
2022/10/15 11:40:40;;;;;;;8.10;6.47;;;;;;;21.04;51.45;100250.50;4951189;28;20114;-86